Latest Weather Observations for Canterbury

IDN60801

Issued at 6:32 pm EST Saturday 25 April 2015 (issued every 30 minutes, with the page automatically refreshed every 10 minutes)

About weather observations | Map of weather stations | Latest weather observations for NSW | Other Formats
Station Details ID: 066194 Name: CANTERBURY RACECOURSE AWS Lat: -33.91 Lon: 151.11 Height: 3.0 m
Data from the previous 72 hours. | See also: Recent months at Canterbury
Date/Time
EST
Temp
°C
App
Temp
°C
Dew
Point
Rel
Hum
%
Delta-T
°C
Wind Press
QNH
hPa
Press
MSL
hPa
Rain
since 9 am
mm
Dir
 
Spd
km/h
Gust
km/h
Spd
kts
Gust
kts
25/06:30pm 12.2 11.4 11.1 93 0.6 E 6 9 3 5 - - 31.0
25/06:00pm 12.7 11.8 10.6 87 1.1 E 6 11 3 6 - - 31.0
25/05:30pm 13.1 11.0 11.2 88 1.0 E 13 17 7 9 - - 31.0
25/05:13pm 13.6 10.9 11.8 89 1.0 ESE 17 28 9 15 - - 31.0
25/05:00pm 13.7 13.1 12.4 92 0.7 ENE 7 17 4 9 - - 31.0
25/04:30pm 14.8 13.0 11.0 78 2.0 W 11 24 6 13 - - 19.2
25/04:13pm 17.7 15.7 11.5 67 3.4 SE 13 19 7 10 - - 0.8
25/04:00pm 18.5 15.5 10.8 61 4.2 ESE 17 20 9 11 - - 0.0
25/03:30pm 19.9 17.4 9.8 52 5.4 ENE 13 17 7 9 - - 0.0
25/03:00pm 20.6 17.4 10.1 51 5.7 ESE 17 22 9 12 - - 0.0
25/02:30pm 22.0 19.9 9.9 46 6.6 E 11 22 6 12 - - 0.0
25/02:00pm 23.5 22.7 8.0 37 8.2 WNW 2 11 1 6 - - 0.0
25/01:30pm 22.4 21.0 8.9 42 7.2 WNW 6 13 3 7 - - 0.0
25/01:00pm 22.0 20.2 7.0 38 7.7 WNW 6 9 3 5 - - 0.0
25/12:30pm 21.9 20.7 9.4 45 6.7 WNW 6 11 3 6 - - 0.0
25/12:00pm 21.3 19.9 9.5 47 6.3 WNW 7 11 4 6 - - 0.0
25/11:30am 20.8 19.6 10.3 51 5.7 WNW 7 13 4 7 - - 0.0
25/11:00am 20.4 19.3 11.9 58 4.7 WNW 9 13 5 7 - - 0.0
25/10:30am 19.1 17.9 11.7 62 4.1 NW 9 13 5 7 - - 0.0
25/10:00am 17.9 17.4 11.9 68 3.3 WNW 6 11 3 6 - - 0.0
25/09:30am 15.7 14.3 10.9 73 2.6 NW 9 13 5 7 - - 0.0
25/09:00am 15.5 12.8 10.5 72 2.6 NW 15 20 8 11 - - 0.2
25/08:30am 14.2 13.1 11.9 86 1.2 WNW 9 11 5 6 - - 0.2
25/08:00am 13.4 13.6 13.2 99 0.1 WNW 4 6 2 3 - - 0.2
25/07:30am 11.9 11.7 11.7 99 0.1 WNW 4 7 2 4 - - 0.2
25/07:00am 9.8 9.8 9.7 99 0.0 CALM 0 0 0 0 - - 0.2
25/06:30am 9.6 9.5 9.5 99 0.0 CALM 0 0 0 0 - - 0.2
25/06:00am 9.5 9.4 9.4 99 0.0 CALM 0 0 0 0 - - 0.2
25/05:52am 9.7 9.6 9.6 99 0.0 CALM 0 0 0 0 - - 0.2
25/05:30am 9.7 9.6 9.6 99 0.0 CALM 0 0 0 0 - - 0.2
25/05:00am 9.9 9.9 9.8 99 0.1 CALM 0 0 0 0 - - 0.2
25/04:57am 10.0 10.0 9.9 99 0.1 CALM 0 0 0 0 - - 0.2
25/04:44am 9.9 9.8 9.6 98 0.1 CALM 0 0 0 0 - - 0.2
25/04:30am 9.7 9.6 9.4 98 0.1 CALM 0 0 0 0 - - 0.2
25/04:25am 10.0 10.0 9.7 98 0.2 CALM 0 0 0 0 - - 0.2
25/04:00am 10.4 10.5 10.1 98 0.2 CALM 0 0 0 0 - - 0.2
25/03:47am 10.3 10.4 10.0 98 0.2 CALM 0 0 0 0 - - 0.2
25/03:30am 10.6 10.7 10.3 98 0.2 CALM 0 0 0 0 - - 0.2
25/03:05am 10.7 10.9 10.4 98 0.2 CALM 0 0 0 0 - - 0.2
25/03:00am 10.9 11.1 10.6 98 0.2 CALM 0 0 0 0 - - 0.2
25/02:30am 10.8 10.9 10.3 97 0.3 CALM 0 0 0 0 - - 0.2
25/02:05am 11.1 11.3 10.6 97 0.3 CALM 0 0 0 0 - - 0.2
25/02:00am 11.2 11.4 10.7 97 0.3 CALM 0 0 0 0 - - 0.2
25/01:45am 11.2 11.4 10.7 97 0.3 CALM 0 0 0 0 - - 0.2
25/01:30am 11.8 12.2 11.3 97 0.3 CALM 0 0 0 0 - - 0.2
25/01:00am 11.9 12.3 11.3 96 0.3 CALM 0 0 0 0 - - 0.2
25/12:30am 12.1 12.6 11.5 96 0.3 CALM 0 0 0 0 - - 0.2
25/12:00am 12.2 12.6 11.4 95 0.4 CALM 0 0 0 0 - - 0.2
 
Date/Time
EST
Temp
°C
App
Temp
°C
Dew
Point
Rel
Hum
%
Delta-T
°C
Wind Press
QNH
hPa
Press
MSL
hPa
Rain
since 9 am
mm
Dir
 
Spd
km/h
Gust
km/h
Spd
kts
Gust
kts
24/11:30pm 12.3 12.7 11.2 93 0.6 CALM 0 0 0 0 - - 0.2
24/11:00pm 13.3 14.1 12.5 95 0.4 CALM 0 0 0 0 - - 0.2
24/10:30pm 13.4 14.1 12.3 93 0.6 CALM 0 0 0 0 - - 0.2
24/10:00pm 13.9 14.7 12.6 92 0.7 CALM 0 0 0 0 - - 0.2
24/09:30pm 14.1 14.8 12.3 89 1.0 CALM 0 0 0 0 - - 0.2
24/09:00pm 14.6 15.4 12.5 87 1.1 CALM 0 0 0 0 - - 0.2
24/08:30pm 15.5 16.5 13.2 86 1.3 CALM 0 0 0 0 - - 0.2
24/08:00pm 15.7 16.5 12.5 81 1.8 CALM 0 0 0 0 - - 0.2
24/07:30pm 16.8 17.6 12.7 77 2.3 CALM 0 0 0 0 - - 0.2
24/07:00pm 17.6 18.6 13.3 76 2.4 CALM 0 0 0 0 - - 0.2
24/06:30pm 17.6 18.4 12.7 73 2.7 CALM 0 0 0 0 - - 0.2
24/06:00pm 19.1 19.7 13.1 68 3.4 WNW 2 6 1 3 - - 0.2
24/05:30pm 20.8 20.2 11.7 56 5.1 WNW 6 7 3 4 - - 0.2
24/05:00pm 21.4 20.2 10.3 49 6.0 WNW 7 11 4 6 - - 0.2
24/04:40pm 22.4 21.0 10.9 48 6.4 WNW 9 15 5 8 - - 0.2
24/04:30pm 23.0 21.1 10.4 45 6.9 WNW 11 17 6 9 - - 0.2
24/04:01pm 23.6 21.5 11.3 46 6.9 NW 13 19 7 10 - - 0.2
24/04:00pm 23.6 21.6 11.6 47 6.8 NW 13 19 7 10 - - 0.2
24/03:38pm 23.9 23.2 13.2 51 6.2 NW 9 13 5 7 - - 0.2
24/03:30pm 22.6 21.0 11.7 50 6.1 NW 11 19 6 10 - - 0.2
24/03:22pm 22.9 20.8 11.3 48 6.5 WNW 13 20 7 11 - - 0.2
24/03:20pm 23.2 21.2 11.6 48 6.5 NW 13 22 7 12 - - 0.2
24/03:02pm 24.0 23.0 12.3 48 6.7 NW 9 17 5 9 - - 0.2
24/03:00pm 24.0 22.8 11.7 46 6.9 NW 9 17 5 9 - - 0.2
24/02:45pm 23.4 22.1 12.4 50 6.3 NW 11 19 6 10 - - 0.2
24/02:30pm 24.4 23.3 13.0 49 6.6 WNW 11 19 6 10 - - 0.2
24/02:25pm 24.1 23.3 13.9 53 6.0 NW 11 19 6 10 - - 0.2
24/02:00pm 24.1 23.5 13.6 52 6.1 N 9 20 5 11 - - 0.2
24/01:30pm 23.6 23.3 14.3 56 5.5 NNW 9 15 5 8 - - 0.2
24/01:00pm 22.3 21.8 12.8 55 5.4 NW 7 13 4 7 - - 0.2
24/12:30pm 22.4 20.9 11.8 51 6.0 NW 11 15 6 8 - - 0.2
24/12:00pm 21.9 20.8 13.0 57 5.1 WNW 11 15 6 8 - - 0.2
24/11:30am 21.2 21.0 14.8 67 3.8 NW 9 15 5 8 - - 0.0
24/11:00am 19.7 19.2 13.9 69 3.3 WNW 9 13 5 7 - - 0.0
24/10:30am 18.5 18.0 13.8 74 2.7 WNW 9 13 5 7 - - 0.0
24/10:00am 17.2 16.4 14.1 82 1.8 WNW 11 17 6 9 - - 0.0
24/09:30am 16.4 16.0 14.2 87 1.3 NW 9 15 5 8 - - 0.0
24/09:00am 15.4 14.6 13.9 91 0.8 WNW 11 15 6 8 - - 0.0
24/08:30am 15.3 15.0 14.3 94 0.6 NW 9 13 5 7 - - 0.0
24/08:02am 15.1 15.1 15.1 100 0.0 NW 9 11 5 6 - - 0.0
24/08:00am 15.1 15.1 15.1 100 0.0 WNW 9 11 5 6 - - 0.0
24/07:30am 14.1 15.4 14.1 100 0.0 CALM 0 0 0 0 - - 0.0
24/07:00am 12.8 13.6 12.6 99 0.1 CALM 0 0 0 0 - - 0.0
24/06:30am 12.8 12.5 12.6 99 0.1 SE 6 9 3 5 - - 0.0
24/06:00am 12.0 12.2 11.8 99 0.1 SE 2 6 1 3 - - 0.0
24/05:30am 11.9 12.4 11.7 99 0.1 CALM 0 0 0 0 - - 0.0
24/05:00am 12.1 12.7 11.9 99 0.1 CALM 0 6 0 3 - - 0.0
24/04:30am 12.7 12.7 12.5 99 0.1 SE 4 7 2 4 - - 0.0
24/04:00am 12.8 13.6 12.6 99 0.1 CALM 0 0 0 0 - - 0.0
24/03:30am 13.1 14.0 12.9 99 0.1 CALM 0 0 0 0 - - 0.0
24/03:00am 13.1 14.0 12.9 99 0.1 CALM 0 0 0 0 - - 0.0
24/02:30am 12.8 13.6 12.6 99 0.1 CALM 0 0 0 0 - - 0.0
24/02:00am 12.4 13.1 12.2 99 0.1 CALM 0 0 0 0 - - 0.0
24/01:30am 12.7 13.5 12.5 99 0.1 CALM 0 0 0 0 - - 0.0
24/01:00am 12.8 13.2 12.6 99 0.1 SE 2 6 1 3 - - 0.0
24/12:30am 12.7 13.1 12.5 99 0.1 SE 2 7 1 4 - - 0.0
24/12:00am 12.9 13.4 12.7 99 0.1 SE 2 7 1 4 - - 0.0
 
Date/Time
EST
Temp
°C
App
Temp
°C
Dew
Point
Rel
Hum
%
Delta-T
°C
Wind Press
QNH
hPa
Press
MSL
hPa
Rain
since 9 am
mm
Dir
 
Spd
km/h
Gust
km/h
Spd
kts
Gust
kts
23/11:31pm 13.0 13.8 12.7 98 0.2 CALM 0 0 0 0 - - 0.0
23/11:30pm 13.0 13.8 12.7 98 0.2 CALM 0 0 0 0 - - 0.0
23/11:08pm 13.5 14.5 13.3 99 0.1 CALM 0 6 0 3 - - 0.0
23/11:00pm 13.5 13.4 13.3 99 0.1 SE 6 7 3 4 - - 0.0
23/10:30pm 13.2 14.0 12.7 97 0.3 CALM 0 0 0 0 - - 0.0
23/10:00pm 13.3 14.2 12.8 97 0.3 CALM 0 0 0 0 - - 0.0
23/09:30pm 13.7 14.7 13.2 97 0.3 CALM 0 0 0 0 - - 0.0
23/09:27pm 14.0 15.1 13.5 97 0.3 CALM 0 0 0 0 - - 0.0
23/09:14pm 14.2 15.4 13.7 97 0.3 CALM 0 0 0 0 - - 0.0
23/09:00pm 14.0 15.1 13.4 96 0.3 CALM 0 0 0 0 - - 0.0
23/08:51pm 14.2 15.3 13.4 95 0.4 CALM 0 0 0 0 - - 0.0
23/08:30pm 15.1 16.5 14.5 96 0.3 CALM 0 0 0 0 - - 0.0
23/08:00pm 15.0 16.4 14.5 97 0.3 CALM 0 2 0 1 - - 0.0
23/07:30pm 14.9 16.2 14.1 95 0.5 CALM 0 0 0 0 - - 0.0
23/07:00pm 14.9 16.1 13.8 93 0.6 CALM 0 0 0 0 - - 0.0
23/06:30pm 15.3 16.3 13.3 88 1.1 CALM 0 0 0 0 - - 0.0
23/06:00pm 16.3 17.1 13.6 84 1.5 SE 2 6 1 3 - - 0.0
23/05:30pm 17.5 17.5 14.2 81 1.9 SE 7 9 4 5 - - 0.0
23/05:00pm 18.0 18.1 14.5 80 2.0 SE 7 11 4 6 - - 0.0
23/04:30pm 18.7 18.2 15.0 79 2.2 ESE 11 15 6 8 - - 0.0
23/04:00pm 18.8 18.0 15.1 79 2.2 ESE 13 17 7 9 - - 0.0
23/03:30pm 19.1 18.1 14.6 75 2.6 SE 13 17 7 9 - - 0.0
23/03:00pm 19.2 17.3 14.2 73 2.9 ESE 17 22 9 12 - - 0.0
23/02:30pm 19.8 17.3 12.3 62 4.2 SE 17 22 9 12 - - 0.0
23/02:00pm 20.0 17.7 13.0 64 4.0 SE 17 22 9 12 - - 0.0
23/01:30pm 19.8 17.0 12.6 63 4.0 ESE 19 26 10 14 - - 0.0
23/01:00pm 19.9 16.3 13.1 65 3.9 SE 24 30 13 16 - - 0.0
23/12:30pm 20.6 18.6 13.8 65 3.9 SE 17 28 9 15 - - 0.0
23/12:00pm 19.8 17.8 14.0 69 3.3 SE 17 22 9 12 - - 0.0
23/11:30am 19.6 17.7 14.2 71 3.1 SE 17 22 9 12 - - 0.0
23/11:00am 19.7 19.4 14.5 72 3.0 SSE 9 15 5 8 - - 0.0
23/10:30am 18.9 20.4 15.8 82 1.8 S 2 6 1 3 - - 0.0
23/10:00am 19.7 21.5 17.3 86 1.5 SW 4 11 2 6 - - 0.0
23/09:30am 17.7 19.3 15.9 89 1.1 WSW 2 6 1 3 - - 0.0
23/09:00am 15.5 15.6 14.4 93 0.6 W 7 13 4 7 - - 57.2
23/08:30am 14.3 14.8 14.0 98 0.2 W 4 7 2 4 - - 57.2
23/08:00am 14.7 14.9 14.7 100 0.0 WNW 7 13 4 7 - - 57.2
23/07:30am 13.9 13.9 13.7 99 0.1 WNW 6 11 3 6 - - 57.2
23/07:00am 12.5 13.2 12.3 99 0.1 CALM 0 4 0 2 - - 57.2
23/06:30am 11.7 12.2 11.5 99 0.1 CALM 0 0 0 0 - - 57.2
23/06:21am 11.6 11.7 11.4 99 0.1 NW 2 6 1 3 - - 57.2
23/06:00am 11.2 11.5 11.0 99 0.1 CALM 0 0 0 0 - - 57.2
23/05:30am 11.1 11.4 10.9 99 0.1 CALM 0 0 0 0 - - 57.2
23/05:00am 11.5 11.9 11.3 99 0.1 CALM 0 0 0 0 - - 57.2
23/04:30am 11.4 11.8 11.2 99 0.1 CALM 0 0 0 0 - - 57.2
23/04:00am 11.6 12.0 11.4 99 0.1 CALM 0 0 0 0 - - 57.2
23/03:30am 11.5 11.9 11.3 99 0.1 CALM 0 0 0 0 - - 57.2
23/03:00am 11.6 12.0 11.4 99 0.1 CALM 0 0 0 0 - - 57.2
23/02:30am 11.6 12.0 11.3 98 0.2 CALM 0 0 0 0 - - 57.0
23/02:00am 12.0 12.5 11.7 98 0.2 CALM 0 0 0 0 - - 57.0
23/01:30am 12.1 12.7 11.8 98 0.2 CALM 0 0 0 0 - - 57.0
23/01:00am 12.4 13.0 11.8 96 0.3 CALM 0 0 0 0 - - 57.0
23/12:30am 12.8 13.5 12.2 96 0.3 CALM 0 0 0 0 - - 57.0
23/12:00am 14.1 15.2 13.5 96 0.3 CALM 0 0 0 0 - - 57.0
 
Date/Time
EST
Temp
°C
App
Temp
°C
Dew
Point
Rel
Hum
%
Delta-T
°C
Wind Press
QNH
hPa
Press
MSL
hPa
Rain
since 9 am
mm
Dir
 
Spd
km/h
Gust
km/h
Spd
kts
Gust
kts
22/11:48pm 14.8 16.2 14.3 97 0.3 CALM 0 0 0 0 - - 57.0
22/11:30pm 15.2 16.7 14.7 97 0.3 CALM 0 0 0 0 - - 57.0
22/11:00pm 15.4 15.9 14.9 97 0.3 WSW 6 9 3 5 - - 57.0
22/10:30pm 15.5 16.0 14.9 96 0.3 SSW 6 6 3 3 - - 57.0
22/10:00pm 15.7 17.0 15.2 97 0.3 NE 2 9 1 5 - - 57.0
22/09:42pm 15.7 16.2 15.1 96 0.3 SE 6 9 3 5 - - 57.0
22/09:30pm 15.7 17.4 15.1 96 0.3 CALM 0 7 0 4 - - 57.0
22/09:00pm 15.7 16.0 14.9 95 0.5 SSW 7 13 4 7 - - 54.8
22/08:45pm 15.7 16.0 14.9 95 0.5 S 7 15 4 8 - - 54.6
22/08:39pm 15.7 15.6 14.9 95 0.5 S 9 15 5 8 - - 54.6
22/08:30pm 15.6 15.5 15.0 96 0.3 SSW 9 17 5 9 - - 54.6
22/08:00pm 15.8 15.3 15.0 95 0.5 S 11 19 6 10 - - 52.4
22/07:30pm 15.7 14.7 14.7 94 0.6 SW 13 22 7 12 - - 48.4
22/07:00pm 15.9 15.2 14.3 90 0.9 S 11 20 6 11 - - 45.4
22/06:54pm 16.1 15.0 14.3 89 1.0 SSW 13 20 7 11 - - 44.8
22/06:46pm 16.2 15.1 14.4 89 1.0 SSW 13 19 7 10 - - 44.4

Other Formats:

Comma delimited format used in spreadsheet applications
http://www.bom.gov.au/fwo/IDN60801/IDN60801.94766.axf

JavaScript Object Notation format (JSON) in row-major order
http://www.bom.gov.au/fwo/IDN60801/IDN60801.94766.json